Ital Oriente — A8LN2 — position and weather

sailwx.info

Track history (hours):
 
Tides and Currents Weather Stations Pressure Air Temp Water Temp Dewpoint Dewpoint Depression Visibility Wind Speed Wind Dir Waves Ship Positions

Ital Oriente

Last reported at 2016-Dec-08 01:31 UTC. Time now 2016-Dec-08 02:12 UTC.
Position N 37°57' E 023°35'.

Length 222 m; draft 8.4 m.

Type: Cargo ship. MMSI: 636091278.

Date/timePositionNaut miles runAvg speedWind from/ knotsBaromVisibWave heightAir tempDewpointWater temp
2016-Dec-08 01:31N 37°57' E 023°35'0 0.0
2016-Dec-08 00:31N 37°57' E 023°35'0 0.0
2016-Dec-07 23:31N 37°57' E 023°35'0 0.0
2016-Dec-07 22:32N 37°57' E 023°35'0 0.0
2016-Dec-07 21:29N 37°57' E 023°35'0 0.0
2016-Dec-07 20:31N 37°57' E 023°35'0 0.0
2016-Dec-07 19:31N 37°57' E 023°35'0 0.0
2016-Dec-07 18:31N 37°57' E 023°35'1 1.1
2016-Dec-07 17:33N 37°56' E 023°35'2 2.4
2016-Dec-07 16:33N 37°54' E 023°36'1 0.7
2016-Dec-07 15:34N 37°54' E 023°36'2 1.6
2016-Dec-07 14:33N 37°52' E 023°34'3 2.9
2016-Dec-07 13:27N 37°52' E 023°30'0 0.0
2016-Dec-07 12:33N 37°52' E 023°30'0 0.0
2016-Dec-07 11:33N 37°52' E 023°30'0 0.0
2016-Dec-07 10:33N 37°52' E 023°30'0 0.0
2016-Dec-07 09:33N 37°52' E 023°30'0 0.0
2016-Dec-07 08:33N 37°52' E 023°30'0 0.0
2016-Dec-07 07:33N 37°52' E 023°30'0 0.0
2016-Dec-07 06:33N 37°52' E 023°30'0 0.1
2016-Dec-07 05:33N 37°52' E 023°30'0 0.0
2016-Dec-07 04:33N 37°52' E 023°30'0 0.0
2016-Dec-07 03:33N 37°52' E 023°30'0 0.0
2016-Dec-07 02:33N 37°52' E 023°30'0 0.2
2016-Dec-07 01:33N 37°52' E 023°30'0 0.1
2016-Dec-07 00:33N 37°52' E 023°30'0 0.1
2016-Dec-06 23:33N 37°52' E 023°30'0 0.0
2016-Dec-06 22:33N 37°52' E 023°30'0 0.0
2016-Dec-06 21:33N 37°52' E 023°30'0 0.0
2016-Dec-06 20:33N 37°52' E 023°30'0 0.1
2016-Dec-06 18:33N 37°52' E 023°30'0 0.1
2016-Dec-06 17:33N 37°52' E 023°30'0 0.0
2016-Dec-06 16:30N 37°52' E 023°30'0 0.0
2016-Dec-06 15:33N 37°52' E 023°30'0 0.0
2016-Dec-06 14:33N 37°52' E 023°30'0 0.0
2016-Dec-06 13:27N 37°52' E 023°30'0 0.0
2016-Dec-06 12:33N 37°52' E 023°30'0 0.1
2016-Dec-06 11:33N 37°52' E 023°30'0 0.0
2016-Dec-06 10:33N 37°52' E 023°30'0 0.1
2016-Dec-06 09:30N 37°52' E 023°30'0 0.1
2016-Dec-06 08:33N 37°52' E 023°30'0 0.1
2016-Dec-06 07:33N 37°52' E 023°30'0 0.0
2016-Dec-06 06:33N 37°52' E 023°30'0 0.4
2016-Dec-06 05:33N 37°51' E 023°30'7 6.6
2016-Dec-06 04:34N 37°51' E 023°38'1211.8
2016-Dec-06 03:34N 37°41' E 023°46'1211.2
2016-Dec-06 02:31N 37°35' E 023°59'1110.8
2016-Dec-06 01:33N 37°39' E 024°11'1211.9
2016-Dec-06 00:33N 37°47' E 024°22'1211.5
2016-Dec-05 23:33N 37°55' E 024°33'2310.4
2016-Dec-05 21:21N 38°18' E 024°32'85 1.9
2016-Dec-04 01:33N 39°39' E 024°01'1212.2
2016-Dec-04 00:33N 39°33' E 024°15'8212.5
2016-Dec-03 18:00N 38°54' E 025°48'42 1.7 060 / 101021.010.8 15.013.318.0
2016-Dec-02 18:00N 38°36' E 026°36'170 7.5 180 / 271011.0 5.4 13.010.318.0
2016-Dec-01 19:12N 40°56' E 028°41'18313.9
2016-Dec-01 06:00N 39°12' E 025°24'9116.8 030 / 421017.0 5.4 8.5 6.717.0
2016-Dec-01 00:33N 37°51' E 024°29'1816.8
2016-Nov-30 23:29N 37°39' E 024°12'1415.0
2016-Nov-30 22:33N 37°36' E 023°55'1717.1
2016-Nov-30 21:33N 37°47' E 023°38'1110.7
2016-Nov-30 20:33N 37°57' E 023°35'0 0.0
2016-Nov-30 19:33N 37°57' E 023°35'0 0.0
2016-Nov-30 18:33N 37°57' E 023°35'0 0.0
2016-Nov-30 17:33N 37°57' E 023°35'0 0.0
2016-Nov-30 16:33N 37°57' E 023°35'0 0.0
2016-Nov-30 15:33N 37°57' E 023°35'0 0.0
2016-Nov-30 14:33N 37°57' E 023°35'0 0.0
2016-Nov-30 13:33N 37°57' E 023°35'0 0.0
2016-Nov-30 12:33N 37°57' E 023°35'0 0.0
2016-Nov-30 11:33N 37°57' E 023°35'0 0.0
2016-Nov-30 10:33N 37°57' E 023°35'0 0.0
2016-Nov-30 09:33N 37°57' E 023°35'0 0.0
2016-Nov-30 08:33N 37°57' E 023°35'0 0.0
2016-Nov-30 07:33N 37°57' E 023°35'0 0.0
2016-Nov-30 06:33N 37°57' E 023°35'0 0.0
2016-Nov-30 05:33N 37°57' E 023°35'0 0.0
2016-Nov-30 04:33N 37°57' E 023°35'0 0.0
2016-Nov-30 03:30N 37°57' E 023°35'0 0.0
2016-Nov-30 02:33N 37°57' E 023°35'0 0.0
2016-Nov-30 01:33N 37°57' E 023°35'0 0.0
2016-Nov-30 00:33N 37°57' E 023°35'0 0.0
2016-Nov-29 23:33N 37°57' E 023°35'0 0.0
2016-Nov-29 22:33N 37°57' E 023°35'0 0.0
2016-Nov-29 21:33N 37°57' E 023°35'0 0.0
2016-Nov-29 20:33N 37°57' E 023°35'0 0.0
2016-Nov-29 19:33N 37°57' E 023°35'0 0.0
2016-Nov-29 18:33N 37°57' E 023°35'0 0.0
2016-Nov-29 17:33N 37°57' E 023°35'0 0.0
2016-Nov-29 16:33N 37°57' E 023°35'0 0.0
2016-Nov-29 15:33N 37°57' E 023°35'3 3.0
2016-Nov-29 14:33N 37°54' E 023°35'1 1.4
2016-Nov-29 13:33N 37°53' E 023°35'2 2.0
2016-Nov-29 12:33N 37°53' E 023°38'5 9.6
2016-Nov-29 12:00N 37°48' E 023°36'510.6 010 / 61010.0 5.4 14.012.3
2016-Nov-29 11:33N 37°47' E 023°42'9 9.3
2016-Nov-29 10:33N 37°38' E 023°47'6 6.5
2016-Nov-29 09:33N 37°34' E 023°52'9 9.5
2016-Nov-29 08:33N 37°35' E 024°04'1211.2
2016-Nov-29 07:31N 37°42' E 024°16'1414.5
2016-Nov-29 06:33N 37°51' E 024°29'16915.3
2016-Nov-28 19:28N 40°22' E 022°48'1213.3
2016-Nov-28 18:33N 40°33' E 022°52'5 4.6
2016-Nov-28 17:28N 40°38' E 022°54'0 0.0
2016-Nov-28 16:27N 40°38' E 022°54'0 0.0
2016-Nov-28 15:30N 40°38' E 022°54'0 0.0
2016-Nov-28 14:31N 40°38' E 022°54'0 0.0
2016-Nov-28 13:30N 40°38' E 022°54'0 0.0
2016-Nov-28 12:33N 40°38' E 022°54'0 0.0
2016-Nov-28 11:33N 40°38' E 022°54'0 0.0
2016-Nov-28 10:33N 40°38' E 022°54'0 0.0
2016-Nov-28 09:33N 40°38' E 022°54'0 0.0
2016-Nov-28 08:33N 40°38' E 022°54'0 0.0
2016-Nov-28 07:33N 40°38' E 022°54'0 0.0
2016-Nov-28 06:33N 40°38' E 022°54'0 0.0
2016-Nov-28 05:24N 40°38' E 022°54'0 0.0
2016-Nov-28 04:27N 40°38' E 022°54'0 0.0
2016-Nov-28 03:27N 40°38' E 022°54'0 0.0
2016-Nov-28 02:27N 40°38' E 022°54'  
Track history (hours):
 
Tides and Currents Weather Stations Pressure Air Temp Water Temp Dewpoint Dewpoint Depression Visibility Wind Speed Wind Dir Waves Ship Positions

Ital Oriente

Last reported at 2016-Dec-08 01:31 UTC. Time now 2016-Dec-08 02:12 UTC.
Position N 37°57' E 023°35'.

Length 222 m; draft 8.4 m.

Type: Cargo ship. MMSI: 636091278.

Date/timePositionNaut miles runAvg speedWind from/ knotsBaromVisibWave heightAir tempDewpointWater temp
2016-Dec-08 01:31N 37°57' E 023°35'0 0.0
2016-Dec-08 00:31N 37°57' E 023°35'0 0.0
2016-Dec-07 23:31N 37°57' E 023°35'0 0.0
2016-Dec-07 22:32N 37°57' E 023°35'0 0.0
2016-Dec-07 21:29N 37°57' E 023°35'0 0.0
2016-Dec-07 20:31N 37°57' E 023°35'0 0.0
2016-Dec-07 19:31N 37°57' E 023°35'0 0.0
2016-Dec-07 18:31N 37°57' E 023°35'1 1.1
2016-Dec-07 17:33N 37°56' E 023°35'2 2.4
2016-Dec-07 16:33N 37°54' E 023°36'1 0.7
2016-Dec-07 15:34N 37°54' E 023°36'2 1.6
2016-Dec-07 14:33N 37°52' E 023°34'3 2.9
2016-Dec-07 13:27N 37°52' E 023°30'0 0.0
2016-Dec-07 12:33N 37°52' E 023°30'0 0.0
2016-Dec-07 11:33N 37°52' E 023°30'0 0.0
2016-Dec-07 10:33N 37°52' E 023°30'0 0.0
2016-Dec-07 09:33N 37°52' E 023°30'0 0.0
2016-Dec-07 08:33N 37°52' E 023°30'0 0.0
2016-Dec-07 07:33N 37°52' E 023°30'0 0.0
2016-Dec-07 06:33N 37°52' E 023°30'0 0.1
2016-Dec-07 05:33N 37°52' E 023°30'0 0.0
2016-Dec-07 04:33N 37°52' E 023°30'0 0.0
2016-Dec-07 03:33N 37°52' E 023°30'0 0.0
2016-Dec-07 02:33N 37°52' E 023°30'0 0.2
2016-Dec-07 01:33N 37°52' E 023°30'0 0.1
2016-Dec-07 00:33N 37°52' E 023°30'0 0.1
2016-Dec-06 23:33N 37°52' E 023°30'0 0.0
2016-Dec-06 22:33N 37°52' E 023°30'0 0.0
2016-Dec-06 21:33N 37°52' E 023°30'0 0.0
2016-Dec-06 20:33N 37°52' E 023°30'0 0.1
2016-Dec-06 18:33N 37°52' E 023°30'0 0.1
2016-Dec-06 17:33N 37°52' E 023°30'0 0.0
2016-Dec-06 16:30N 37°52' E 023°30'0 0.0
2016-Dec-06 15:33N 37°52' E 023°30'0 0.0
2016-Dec-06 14:33N 37°52' E 023°30'0 0.0
2016-Dec-06 13:27N 37°52' E 023°30'0 0.0
2016-Dec-06 12:33N 37°52' E 023°30'0 0.1
2016-Dec-06 11:33N 37°52' E 023°30'0 0.0
2016-Dec-06 10:33N 37°52' E 023°30'0 0.1
2016-Dec-06 09:30N 37°52' E 023°30'0 0.1
2016-Dec-06 08:33N 37°52' E 023°30'0 0.1
2016-Dec-06 07:33N 37°52' E 023°30'0 0.0
2016-Dec-06 06:33N 37°52' E 023°30'0 0.4
2016-Dec-06 05:33N 37°51' E 023°30'7 6.6
2016-Dec-06 04:34N 37°51' E 023°38'1211.8
2016-Dec-06 03:34N 37°41' E 023°46'1211.2
2016-Dec-06 02:31N 37°35' E 023°59'1110.8
2016-Dec-06 01:33N 37°39' E 024°11'1211.9
2016-Dec-06 00:33N 37°47' E 024°22'1211.5
2016-Dec-05 23:33N 37°55' E 024°33'2310.4
2016-Dec-05 21:21N 38°18' E 024°32'85 1.9
2016-Dec-04 01:33N 39°39' E 024°01'1212.2
2016-Dec-04 00:33N 39°33' E 024°15'8212.5
2016-Dec-03 18:00N 38°54' E 025°48'42 1.7 060 / 101021.010.8 15.013.318.0
2016-Dec-02 18:00N 38°36' E 026°36'170 7.5 180 / 271011.0 5.4 13.010.318.0
2016-Dec-01 19:12N 40°56' E 028°41'18313.9
2016-Dec-01 06:00N 39°12' E 025°24'9116.8 030 / 421017.0 5.4 8.5 6.717.0
2016-Dec-01 00:33N 37°51' E 024°29'1816.8
2016-Nov-30 23:29N 37°39' E 024°12'1415.0
2016-Nov-30 22:33N 37°36' E 023°55'1717.1
2016-Nov-30 21:33N 37°47' E 023°38'1110.7
2016-Nov-30 20:33N 37°57' E 023°35'0 0.0
2016-Nov-30 19:33N 37°57' E 023°35'0 0.0
2016-Nov-30 18:33N 37°57' E 023°35'0 0.0
2016-Nov-30 17:33N 37°57' E 023°35'0 0.0
2016-Nov-30 16:33N 37°57' E 023°35'0 0.0
2016-Nov-30 15:33N 37°57' E 023°35'0 0.0
2016-Nov-30 14:33N 37°57' E 023°35'0 0.0
2016-Nov-30 13:33N 37°57' E 023°35'0 0.0
2016-Nov-30 12:33N 37°57' E 023°35'0 0.0
2016-Nov-30 11:33N 37°57' E 023°35'0 0.0
2016-Nov-30 10:33N 37°57' E 023°35'0 0.0
2016-Nov-30 09:33N 37°57' E 023°35'0 0.0
2016-Nov-30 08:33N 37°57' E 023°35'0 0.0
2016-Nov-30 07:33N 37°57' E 023°35'0 0.0
2016-Nov-30 06:33N 37°57' E 023°35'0 0.0
2016-Nov-30 05:33N 37°57' E 023°35'0 0.0
2016-Nov-30 04:33N 37°57' E 023°35'0 0.0
2016-Nov-30 03:30N 37°57' E 023°35'0 0.0
2016-Nov-30 02:33N 37°57' E 023°35'0 0.0
2016-Nov-30 01:33N 37°57' E 023°35'0 0.0
2016-Nov-30 00:33N 37°57' E 023°35'0 0.0
2016-Nov-29 23:33N 37°57' E 023°35'0 0.0
2016-Nov-29 22:33N 37°57' E 023°35'0 0.0
2016-Nov-29 21:33N 37°57' E 023°35'0 0.0
2016-Nov-29 20:33N 37°57' E 023°35'0 0.0
2016-Nov-29 19:33N 37°57' E 023°35'0 0.0
2016-Nov-29 18:33N 37°57' E 023°35'0 0.0
2016-Nov-29 17:33N 37°57' E 023°35'0 0.0
2016-Nov-29 16:33N 37°57' E 023°35'0 0.0
2016-Nov-29 15:33N 37°57' E 023°35'3 3.0
2016-Nov-29 14:33N 37°54' E 023°35'1 1.4
2016-Nov-29 13:33N 37°53' E 023°35'2 2.0
2016-Nov-29 12:33N 37°53' E 023°38'5 9.6
2016-Nov-29 12:00N 37°48' E 023°36'510.6 010 / 61010.0 5.4 14.012.3
2016-Nov-29 11:33N 37°47' E 023°42'9 9.3
2016-Nov-29 10:33N 37°38' E 023°47'6 6.5
2016-Nov-29 09:33N 37°34' E 023°52'9 9.5
2016-Nov-29 08:33N 37°35' E 024°04'1211.2
2016-Nov-29 07:31N 37°42' E 024°16'1414.5
2016-Nov-29 06:33N 37°51' E 024°29'16915.3
2016-Nov-28 19:28N 40°22' E 022°48'1213.3
2016-Nov-28 18:33N 40°33' E 022°52'5 4.6
2016-Nov-28 17:28N 40°38' E 022°54'0 0.0
2016-Nov-28 16:27N 40°38' E 022°54'0 0.0
2016-Nov-28 15:30N 40°38' E 022°54'0 0.0
2016-Nov-28 14:31N 40°38' E 022°54'0 0.0
2016-Nov-28 13:30N 40°38' E 022°54'0 0.0
2016-Nov-28 12:33N 40°38' E 022°54'0 0.0
2016-Nov-28 11:33N 40°38' E 022°54'0 0.0
2016-Nov-28 10:33N 40°38' E 022°54'0 0.0
2016-Nov-28 09:33N 40°38' E 022°54'0 0.0
2016-Nov-28 08:33N 40°38' E 022°54'0 0.0
2016-Nov-28 07:33N 40°38' E 022°54'0 0.0
2016-Nov-28 06:33N 40°38' E 022°54'0 0.0
2016-Nov-28 05:24N 40°38' E 022°54'0 0.0
2016-Nov-28 04:27N 40°38' E 022°54'0 0.0
2016-Nov-28 03:27N 40°38' E 022°54'0 0.0
2016-Nov-28 02:27N 40°38' E 022°54'  

Dump ship's entire track history